Impacts TAF Board
For situational awareness. Not to be used for flight planning purposes.
IDs:

KASD - Slidell Arpt, LA, US

Issued at 2324 UTC 22 Sep 2018
Updated at 0221 UTC 23 Sep 2018
Potential Impact None Slight Moderate High
Time0153Z 23/03Z 23/04Z 23/05Z 23/06Z 23/07Z 23/08Z 23/09Z 23/10Z 23/11Z 23/12Z 23/13Z 23/14Z 23/15Z>>
Type OBS PRVL PRVL PRVL PRVL PRVL PRVL PRVL PRVL PRVL PRVL PRVL
  [PRB30]  
PRVL
  [PRB30]  
PRVL
  [PRB30]  
VIS 10 >6 >6 >6 >6 >6 >6 >6 >6 >6 >6 >6
  [4]  
>6
  [4]  
>6
  [4]  
CIG 34 -- -- -- -- -- -- -- -- -- -- --
  [25]  
--
  [25]  
--
  [25]  
Cover BKN SCT SCT SCT SCT SCT SCT SCT SCT SCT SCT SCT
  [BKN]  
SCT
  [BKN]  
SCT
  [BKN]  
FltCat VFR VFR VFR VFR VFR VFR VFR VFR VFR VFR VFR VFR
  [MVFR]  
VFR
  [MVFR]  
VFR
  [MVFR]  
WX -- -- -- -- -- -- -- -- -- -- -- --
  [TSRA]  
--
  [TSRA]  
--
  [TSRA]  
WDir VRB VRB VRB VRB VRB VRB VRB VRB VRB VRB VRB VRB
[VRB]
VRB
[VRB]
VRB
[VRB]
WSpd 0 3 3 3 3 3 3 3 3 3 3 3
  [3]  
3
  [3]  
3
  [3]  
WGst -- -- -- -- -- -- -- -- -- -- -- --
  [--]  
--
  [--]  
--
  [--]  
Raw TAF
KASD 222324Z 2300/2324 VRB03KT P6SM FEW035 SCT110
  FM231200 VRB03KT P6SM FEW025 SCT100
  PROB30 2313/2316 4SM TSRA BKN025CB
  FM231600 15005KT P6SM BKN030 BKN100
  PROB30 2316/2318 4SM TSRA BKN020CB
  FM231800 15006KT P6SM SHRA VCTS SCT030CB BKN070


Raw METAR
KASD 230153Z AUTO 00000KT 10SM SCT026 BKN034 27/23 A2997 RMK AO2 LTG DSNT S SLP149 T02670233
KASD 230053Z AUTO 00000KT 10SM BKN033 BKN046 27/24 A2996 RMK AO2 SLP145 T02670239
KASD 222353Z AUTO 00000KT 10SM FEW036 28/23 A2996 RMK AO2 SLP143 T02780233 10311 20278 53003

METAR Board
Radar Display
Forecast Discussion
For situational awareness. Not to be used for flight planning purposes.